This is the latest recevied weather packets stored in our database for station/object KC3LDA. If no packets are shown the sender has not sent any weather packets the latest 10 day(s).
| Time | Temp. | Humidity | Pressure | Rain* | Wind** | Luminosity | Snow |
|---|---|---|---|---|---|---|---|
| 1777831256 | 13.33° C | 41% | 1007.8 hPa | 0 mm | - | 544 W/m² | - |
| 1777829133 | 12.22° C | 39% | 1007.9 hPa | 0 mm | - | 708 W/m² | - |
| 1777828526 | 12.78° C | 38% | 1007.5 hPa | 0 mm | - | 428 W/m² | - |
| 1777828224 | 13.33° C | 39% | 1007.6 hPa | 0 mm | - | 882 W/m² | - |
| 1777820345 | 11.67° C | 49% | 1008 hPa | 0 mm | - | 323 W/m² | - |
| 1777818528 | 11.11° C | 51% | 1008.1 hPa | 0 mm | - | 718 W/m² | - |
| 1777817921 | 11.11° C | 53% | 1008.2 hPa | 0 mm | - | 735 W/m² | - |
| 1777817619 | 10.56° C | 54% | 1008.2 hPa | 0 mm | - | 680 W/m² | - |
| 1777817315 | 10.56° C | 54% | 1008.2 hPa | 0 mm | - | 667 W/m² | - |
| 1777816708 | 10.56° C | 54% | 1008.2 hPa | 0 mm | - | 630 W/m² | - |
| 1777814286 | 9.44° C | 57% | 1008.3 hPa | 0 mm | - | 503 W/m² | - |
| 1777813377 | 9.44° C | 58% | 1008.1 hPa | 0 mm | - | 453 W/m² | - |
| 1777811864 | 8.89° C | 60% | 1008.2 hPa | 0 mm | - | 375 W/m² | - |
| 1777811563 | 8.89° C | 61% | 1008.1 hPa | 0 mm | - | 351 W/m² | - |
| 1777811258 | 8.89° C | 61% | 1008 hPa | 0 mm | - | 331 W/m² | - |
| 1777810651 | 8.89° C | 62% | 1008.1 hPa | 0 mm | - | 295 W/m² | - |
| 1777810349 | 8.33° C | 62% | 1008.2 hPa | 0 mm | - | 277 W/m² | - |
| 1777809743 | 7.78° C | 62% | 1008.1 hPa | 0 mm | - | 93 W/m² | - |
| 1777809440 | 7.78° C | 64% | 1007.8 hPa | 0 mm | - | 120 W/m² | - |
| 1777808228 | 7.78° C | 63% | 1008.1 hPa | 0 mm | - | 116 W/m² | - |
| 1777807625 | 7.78° C | 65% | 1008 hPa | 0 mm | - | 111 W/m² | - |
| 1777807322 | 7.22° C | 63% | 1008.2 hPa | 0 mm | - | 112 W/m² | - |
| 1777807017 | 7.22° C | 63% | 1007.9 hPa | 0 mm | - | 102 W/m² | - |
| 1777806714 | 7.22° C | 65% | 1007.9 hPa | 0 mm | - | 90 W/m² | - |
| 1777806410 | 7.22° C | 64% | 1007.8 hPa | 0 mm | - | 84 W/m² | - |
* Rain latest hour (hover to see other rain measurements)
** Current wind speed in m/s (hover to see current wind gust speed)